Time,TemperatureF,DewpointF,PressureIn,WindDirection,WindDirectionDegrees,WindSpeedMPH,WindSpeedGustMPH,Humidity,HourlyPrecipIn,Conditions,Clouds,dailyrainin,SoftwareType,DateUTC
2013-07-20 05:53:00,70.2,66.1,29.67,NNE,22,0.0,-999.0,87,-99.99,,,0.00,Acu-Link.com,2013-07-20 09:53:00,
2013-07-20 13:55:00,84.6,59.6,29.70,NNW,337,3.2,-999.0,43,-99.99,,,0.00,Acu-Link.com,2013-07-20 17:55:00,
2013-07-20 14:11:00,84.7,61.0,29.69,West,270,3.2,-999.0,45,-99.99,,,0.00,Acu-Link.com,2013-07-20 18:11:00,
2013-07-20 14:26:00,85.6,61.8,29.68,West,270,2.2,-999.0,45,-99.99,,,0.00,Acu-Link.com,2013-07-20 18:26:00,
2013-07-20 14:41:00,84.6,60.9,29.68,NW,315,4.2,-999.0,45,-99.99,,,0.00,Acu-Link.com,2013-07-20 18:41:00,
2013-07-20 15:12:00,84.2,60.5,29.67,WNW,292,2.2,-999.0,45,-99.99,,,0.00,Acu-Link.com,2013-07-20 19:12:00,
2013-07-20 15:27:00,86.2,61.0,29.68,NNE,22,4.2,-999.0,43,-99.99,,,0.00,Acu-Link.com,2013-07-20 19:27:00,
2013-07-20 15:42:00,85.3,59.6,29.67,ESE,112,3.2,-999.0,42,-99.99,,,0.00,Acu-Link.com,2013-07-20 19:42:00,
2013-07-20 16:12:00,84.9,61.2,29.67,South,180,1.7,-999.0,45,-99.99,,,0.00,Acu-Link.com,2013-07-20 20:12:00,
2013-07-20 16:28:00,84.4,60.7,29.68,West,270,1.7,-999.0,45,-99.99,,,0.00,Acu-Link.com,2013-07-20 20:28:00,
2013-07-20 17:14:00,86.2,62.3,29.68,WNW,292,1.1,-999.0,45,-99.99,,,0.00,Acu-Link.com,2013-07-20 21:14:00,
2013-07-20 18:09:00,81.3,62.0,29.69,NW,315,3.7,-999.0,52,-99.99,,,0.00,Acu-Link.com,2013-07-20 22:09:00,
2013-07-20 18:24:00,81.3,62.5,29.69,West,270,1.7,-999.0,53,-99.99,,,0.00,Acu-Link.com,2013-07-20 22:24:00,
2013-07-20 18:55:00,80.4,62.2,29.70,NNW,337,0.0,-999.0,54,-99.99,,,0.00,Acu-Link.com,2013-07-20 22:55:00,
2013-07-20 21:26:00,73.8,60.4,29.73,SSE,157,0.0,-999.0,63,-99.99,,,0.00,Acu-Link.com,2013-07-21 01:26:00,
2013-07-20 21:41:00,70.3,60.4,29.73,SSE,157,0.0,-999.0,71,-99.99,,,0.00,Acu-Link.com,2013-07-21 01:41:00,
2013-07-20 22:02:00,69.3,59.9,29.74,SSE,157,0.0,-999.0,72,-99.99,,,0.00,Acu-Link.com,2013-07-21 02:02:00,
2013-07-20 22:34:00,68.4,59.8,29.75,West,270,0.0,-999.0,74,-99.99,,,0.00,Acu-Link.com,2013-07-21 02:34:00,
2013-07-20 22:50:00,67.8,60.0,29.76,West,270,0.0,-999.0,76,-99.99,,,0.00,Acu-Link.com,2013-07-21 02:50:00,
2013-07-20 23:05:00,66.7,59.6,29.77,West,270,0.0,-999.0,78,-99.99,,,0.00,Acu-Link.com,2013-07-21 03:05:00,
2013-07-20 23:20:00,66.2,59.8,29.77,ESE,112,0.0,-999.0,80,-99.99,,,0.00,Acu-Link.com,2013-07-21 03:20:00,
2013-07-20 23:36:00,65.5,59.5,29.77,SSE,157,0.0,-999.0,81,-99.99,,,0.00,Acu-Link.com,2013-07-21 03:36:00,
2013-07-20 23:52:00,65.1,60.1,29.78,SSE,157,0.0,-999.0,84,-99.99,,,0.00,Acu-Link.com,2013-07-21 03:52:00,